Date,TemperatureHighF,TemperatureAvgF,TemperatureLowF,DewpointHighF,DewpointAvgF,DewpointLowF,HumidityHigh,HumidityAvg,HumidityLow,PressureMaxIn,PressureMinIn,WindSpeedMaxMPH,WindSpeedAvgMPH,GustSpeedMaxMPH,PrecipitationSumIn
2013-2-1,32.9,28.5,23.2,14.7,0.5,-8.7,58,30,19,30.28,29.85,0,0,0,0.00
2013-2-2,32.0,24.9,17.6,16.3,-0.6,-8.7,71,34,19,30.34,30.07,0,0,0,0.00
2013-2-3,32.9,26.7,21.0,20.7,16.7,12.3,77,66,51,30.08,29.81,0,0,0,0.02
2013-2-4,31.5,26.8,21.9,19.3,5.6,-1.3,75,41,25,30.03,29.85,0,0,2,0.01
2013-2-5,34.9,31.9,26.4,29.6,25.9,15.4,84,78,62,29.99,29.89,0,0,0,0.04
2013-2-6,41.0,34.3,26.6,29.1,20.4,7.6,84,59,36,30.38,29.92,0,0,1,0.01
2013-2-7,40.3,31.0,23.2,32.7,13.4,3.5,74,48,36,30.51,30.29,0,0,0,0.00
2013-2-8,42.3,38.5,33.3,39.6,34.7,29.3,92,86,74,30.30,29.61,14,3,26,1.30
2013-2-9,34.5,31.5,22.3,29.3,16.8,-2.2,85,59,23,30.34,29.63,4,2,14,0.01
2013-2-10,37.9,26.6,14.4,21.6,7.2,-2.4,67,45,19,30.49,30.32,0,0,0,0.00
2013-2-11,55.8,46.8,31.3,52.5,42.6,21.6,93,85,66,30.35,29.64,0,0,0,0.21
2013-2-12,48.9,42.4,32.5,41.8,23.4,18.4,83,48,32,29.98,29.73,17,0,23,0.01
2013-2-13,42.6,34.8,25.5,28.4,23.7,16.5,84,64,44,29.97,29.67,0,0,0,0.04
2013-2-14,47.7,36.9,31.8,35.5,30.4,26.2,88,78,44,30.03,29.69,0,0,0,0.25
2013-2-15,56.7,42.2,32.2,38.1,32.0,27.0,85,68,40,30.04,29.92,12,1,18,0.00
2013-2-16,44.4,37.1,31.5,32.1,25.2,14.3,81,63,41,29.95,29.71,11,0,16,0.01
2013-2-17,33.8,28.3,19.8,14.7,-3.5,-12.5,49,25,18,30.03,29.66,0,0,0,0.04
2013-2-18,37.0,27.1,17.8,6.4,-5.9,-15.5,38,23,18,30.27,30.02,0,0,0,0.00
2013-2-19,52.3,40.7,28.8,45.1,29.8,6.4,90,66,38,30.23,29.68,0,0,0,0.18
2013-2-20,39.2,31.3,25.5,25.3,6.3,-2.0,58,35,22,30.02,29.75,17,0,21,0.00
2013-2-21,36.7,29.2,23.5,10.0,5.2,1.1,45,36,24,30.27,30.00,0,0,1,0.00
2013-2-22,39.2,32.2,23.4,34.3,20.4,7.2,83,62,45,30.40,30.25,0,0,0,0.00
2013-2-23,45.1,41.6,38.1,43.0,39.2,34.2,94,91,82,30.26,29.76,0,0,0,0.53
2013-2-24,52.3,40.3,32.2,38.4,29.3,16.6,93,67,38,30.00,29.74,0,0,0,0.01
2013-2-25,47.3,37.7,28.2,28.4,22.1,16.2,65,54,37,30.23,29.99,0,0,0,0.00
2013-2-26,45.1,37.7,27.1,38.8,29.1,19.2,91,71,56,30.28,29.81,0,0,0,0.27
2013-2-27,55.9,50.2,41.2,51.2,41.5,37.6,94,74,53,29.83,29.49,0,0,0,0.40
2013-2-28,54.7,54.7,54.7,37.9,37.9,37.9,53,53,53,29.55,29.55,0,0,0,0.40